createdAt,value
2022-09-18T08:19:02.425Z,13.43
2022-09-18T08:21:32.072Z,13.95
2022-09-18T08:23:58.715Z,13.53
2022-09-18T08:26:25.302Z,13.45
2022-09-18T08:28:52.050Z,14.17
2022-09-18T08:31:18.708Z,14.39
2022-09-18T08:33:45.491Z,14.05
2022-09-18T08:36:12.135Z,14.04
2022-09-18T08:38:38.943Z,14.23
2022-09-18T08:41:23.894Z,13.76
2022-09-18T08:43:50.490Z,14.01
2022-09-18T08:46:26.041Z,14.47
2022-09-18T08:49:11.132Z,14.58
2022-09-18T08:51:41.670Z,14.32
2022-09-18T08:54:22.556Z,14.99
2022-09-18T08:56:51.360Z,15.27
2022-09-18T08:59:39.554Z,15.72
2022-09-18T09:02:32.970Z,15.98
2022-09-18T09:05:03.896Z,16.03
2022-09-18T09:07:44.155Z,14.58
2022-09-18T09:10:42.231Z,13.40
2022-09-18T09:13:34.863Z,14.04
2022-09-18T09:16:17.687Z,14.01
2022-09-18T09:18:53.181Z,14.00
2022-09-18T09:21:31.951Z,13.98
2022-09-18T09:24:04.560Z,13.64
2022-09-18T09:26:32.967Z,14.04
2022-09-18T09:29:00.860Z,13.44
2022-09-18T09:31:35.746Z,13.72
2022-09-18T09:34:12.722Z,13.02
2022-09-18T09:36:42.477Z,13.24
2022-09-18T09:39:20.916Z,13.63
2022-09-18T09:41:54.871Z,13.52
2022-09-18T09:44:21.812Z,13.94
2022-09-18T09:47:00.548Z,14.50
2022-09-18T09:49:30.311Z,14.89
2022-09-18T09:52:09.285Z,15.03
2022-09-18T09:54:36.392Z,15.06
2022-09-18T09:57:45.162Z,15.15
2022-09-18T10:00:19.866Z,15.59
2022-09-18T10:03:04.819Z,15.49
2022-09-18T10:05:40.617Z,15.04
2022-09-18T10:08:26.661Z,14.96
2022-09-18T10:10:57.987Z,14.86
2022-09-18T10:13:29.541Z,14.78
2022-09-18T10:16:03.394Z,14.62
2022-09-18T10:18:33.973Z,14.40
2022-09-18T10:21:12.392Z,14.28
2022-09-18T10:23:44.247Z,14.63
2022-09-18T10:26:33.715Z,14.54
2022-09-18T10:29:00.568Z,15.00
2022-09-18T10:31:48.633Z,14.43
2022-09-18T10:34:42.599Z,13.83
2022-09-18T10:37:36.802Z,14.08
2022-09-18T10:40:05.330Z,14.28
2022-09-18T10:42:34.223Z,14.13
2022-09-18T10:45:05.075Z,14.91
2022-09-18T10:47:34.442Z,14.68
2022-09-18T10:50:17.348Z,15.07
2022-09-18T10:52:49.062Z,14.10
2022-09-18T10:55:26.653Z,14.80
2022-09-18T10:58:13.631Z,14.64
2022-09-18T11:01:06.015Z,14.70
2022-09-18T11:03:58.080Z,14.55
2022-09-18T11:06:26.986Z,14.90
2022-09-18T11:08:56.790Z,15.04
2022-09-18T11:11:31.266Z,15.17
2022-09-18T11:14:02.195Z,15.56
2022-09-18T11:16:33.372Z,15.75
2022-09-18T11:19:07.380Z,15.44
2022-09-18T11:21:44.028Z,14.97
2022-09-18T11:24:22.299Z,14.73
2022-09-18T11:26:50.988Z,14.76
2022-09-18T11:29:30.837Z,13.82
2022-09-18T11:32:01.079Z,14.47
2022-09-18T11:34:31.232Z,14.91
2022-09-18T11:37:02.678Z,14.92
2022-09-18T11:39:41.742Z,14.92
2022-09-18T11:42:12.509Z,15.31
2022-09-18T11:44:39.850Z,14.86
2022-09-18T11:47:25.578Z,14.40
2022-09-18T11:50:02.225Z,13.95
2022-09-18T11:52:33.263Z,14.66
2022-09-18T11:55:09.328Z,15.06
2022-09-18T11:57:40.338Z,15.52
2022-09-18T12:00:12.089Z,15.30
2022-09-18T12:03:17.086Z,14.99
2022-09-18T12:05:51.480Z,15.34
2022-09-18T12:08:35.485Z,15.69
2022-09-18T12:11:20.709Z,15.82
2022-09-18T12:14:20.858Z,15.42
2022-09-18T12:17:02.220Z,15.46
2022-09-18T12:19:35.573Z,15.07
2022-09-18T12:22:12.736Z,15.28
2022-09-18T12:24:39.456Z,15.62
2022-09-18T12:27:37.890Z,15.77
2022-09-18T12:30:11.861Z,15.98
2022-09-18T12:32:58.166Z,15.46
2022-09-18T12:35:59.796Z,15.42
2022-09-18T12:38:47.607Z,15.26
2022-09-18T12:41:14.171Z,15.45
2022-09-18T12:44:11.246Z,15.64
2022-09-18T12:46:53.185Z,16.16
2022-09-18T12:50:02.819Z,16.73
2022-09-18T12:53:00.589Z,16.65
2022-09-18T12:55:39.454Z,16.30
2022-09-18T12:58:34.204Z,16.53
2022-09-18T13:01:08.918Z,15.83
2022-09-18T13:03:39.509Z,16.26
2022-09-18T13:06:11.321Z,15.51
2022-09-18T13:08:40.933Z,14.99
2022-09-18T13:11:41.307Z,15.16
2022-09-18T13:14:14.119Z,15.46
2022-09-18T13:16:50.173Z,15.12
2022-09-18T13:19:22.642Z,15.86
2022-09-18T13:21:52.490Z,16.17
2022-09-18T13:24:24.919Z,16.16
2022-09-18T13:26:52.595Z,16.72
2022-09-18T13:29:43.939Z,16.08
2022-09-18T13:32:11.471Z,16.09
2022-09-18T13:34:45.715Z,15.63
2022-09-18T13:37:17.551Z,16.31
2022-09-18T13:40:09.777Z,16.07
2022-09-18T13:42:41.118Z,16.08
2022-09-18T13:45:16.864Z,16.00
2022-09-18T13:48:14.499Z,15.39
2022-09-18T13:50:53.120Z,15.84
2022-09-18T13:53:36.556Z,15.73
2022-09-18T13:56:05.012Z,16.00
2022-09-18T13:58:34.333Z,15.76
2022-09-18T14:01:04.966Z,15.78
2022-09-18T14:03:34.770Z,15.75
2022-09-18T14:06:36.627Z,15.61
2022-09-18T14:09:26.799Z,15.72
2022-09-18T14:11:54.473Z,15.31
2022-09-18T14:14:25.733Z,15.49
2022-09-18T14:16:52.562Z,15.51
2022-09-18T14:19:34.130Z,16.07
2022-09-18T14:22:01.878Z,16.63
2022-09-18T14:24:51.194Z,16.40
2022-09-18T14:27:42.235Z,16.25
2022-09-18T14:30:24.370Z,16.31
2022-09-18T14:33:06.280Z,16.44
2022-09-18T14:35:54.528Z,16.21
2022-09-18T14:38:27.750Z,16.28
2022-09-18T14:41:19.287Z,16.33
2022-09-18T14:43:50.957Z,16.49
2022-09-18T14:46:21.396Z,16.05
2022-09-18T14:48:51.343Z,16.02
2022-09-18T14:51:29.464Z,16.02
2022-09-18T14:53:58.614Z,15.94
2022-09-18T14:56:32.317Z,15.79
2022-09-18T14:59:06.831Z,16.08
2022-09-18T15:01:40.184Z,15.98
2022-09-18T15:04:13.490Z,16.13
2022-09-18T15:06:53.568Z,16.30
2022-09-18T15:09:39.287Z,16.21
2022-09-18T15:12:15.062Z,16.01
2022-09-18T15:14:47.350Z,16.63
2022-09-18T15:17:26.415Z,16.78
2022-09-18T15:20:14.946Z,16.86
2022-09-18T15:22:41.914Z,16.62
2022-09-18T15:25:13.929Z,16.62
2022-09-18T15:27:41.967Z,15.75
2022-09-18T15:30:18.763Z,15.96
2022-09-18T15:32:53.990Z,16.15
2022-09-18T15:35:27.459Z,16.03
2022-09-18T15:38:07.503Z,15.70
2022-09-18T15:40:38.960Z,15.68
2022-09-18T15:43:26.619Z,15.90
2022-09-18T15:46:09.696Z,15.86
2022-09-18T15:48:39.421Z,15.96
2022-09-18T15:51:22.390Z,15.88
2022-09-18T15:54:23.669Z,15.77
2022-09-18T15:56:56.446Z,15.77
2022-09-18T15:59:25.625Z,15.79
2022-09-18T16:01:52.310Z,15.42
2022-09-18T16:04:22.469Z,15.58
2022-09-18T16:07:05.268Z,15.74
2022-09-18T16:09:45.212Z,15.87
2022-09-18T16:12:35.979Z,16.33
2022-09-18T16:15:14.687Z,16.40
2022-09-18T16:17:44.133Z,16.54
2022-09-18T16:20:28.458Z,16.72
2022-09-18T16:23:02.918Z,16.92
2022-09-18T16:25:30.114Z,16.80
2022-09-18T16:28:00.502Z,16.62
2022-09-18T16:30:28.145Z,16.45
2022-09-18T16:33:02.198Z,16.47
2022-09-18T16:35:28.790Z,16.47
2022-09-18T16:37:55.881Z,16.56
2022-09-18T16:40:27.498Z,15.96
2022-09-18T16:42:58.550Z,16.22
2022-09-18T16:45:27.108Z,16.26
2022-09-18T16:48:00.311Z,15.98
2022-09-18T16:50:27.574Z,15.73
2022-09-18T16:52:54.835Z,15.37
2022-09-18T16:55:23.770Z,15.82
2022-09-18T16:57:52.157Z,15.94
2022-09-18T17:00:19.186Z,15.92
2022-09-18T17:02:46.087Z,15.93
2022-09-18T17:05:13.082Z,15.81
2022-09-18T17:07:40.745Z,15.54
2022-09-18T17:10:07.707Z,15.95
2022-09-18T17:12:34.409Z,15.85
2022-09-18T17:15:00.966Z,16.23
2022-09-18T17:17:27.619Z,14.90
2022-09-18T17:19:55.841Z,15.03
2022-09-18T17:22:22.924Z,14.96
2022-09-18T17:24:51.345Z,15.61
2022-09-18T17:27:18.779Z,15.89
2022-09-18T17:29:45.412Z,15.66
2022-09-18T17:32:12.605Z,15.81
2022-09-18T17:34:39.285Z,15.77
2022-09-18T17:37:05.886Z,15.66
2022-09-18T17:39:32.502Z,16.06
2022-09-18T17:41:59.527Z,15.18
2022-09-18T17:44:27.988Z,14.90
2022-09-18T17:46:54.663Z,14.12
2022-09-18T17:49:21.608Z,14.33
2022-09-18T17:51:48.855Z,13.99
2022-09-18T17:54:16.969Z,14.42
2022-09-18T17:56:44.020Z,15.00
2022-09-18T17:59:11.447Z,15.06
2022-09-18T18:01:43.037Z,15.24
2022-09-18T18:04:09.779Z,15.07
2022-09-18T18:06:37.107Z,14.97
2022-09-18T18:09:06.534Z,15.31
2022-09-18T18:11:33.482Z,14.77
2022-09-18T18:14:00.419Z,14.91
2022-09-18T18:16:30.733Z,14.94
2022-09-18T18:19:00.107Z,15.18
2022-09-18T18:21:27.645Z,15.32
2022-09-18T18:24:03.502Z,15.16
2022-09-18T18:26:32.726Z,15.25
2022-09-18T18:28:59.403Z,15.65
2022-09-18T18:31:26.346Z,15.28
2022-09-18T18:33:55.030Z,15.32
2022-09-18T18:36:27.682Z,15.16
2022-09-18T18:38:57.735Z,15.57
2022-09-18T18:41:29.327Z,15.52
2022-09-18T18:43:58.176Z,15.47
2022-09-18T18:46:27.083Z,14.35
2022-09-18T18:49:02.078Z,14.46
2022-09-18T18:51:32.007Z,14.99
2022-09-18T18:54:03.656Z,15.27
2022-09-18T18:56:34.009Z,15.39
2022-09-18T18:59:02.391Z,14.82
2022-09-18T19:01:30.710Z,14.35
2022-09-18T19:04:00.694Z,14.79
2022-09-18T19:06:28.812Z,14.55
2022-09-18T19:09:00.984Z,14.92
2022-09-18T19:11:29.428Z,15.16
2022-09-18T19:13:57.252Z,15.16
2022-09-18T19:16:25.676Z,15.26
2022-09-18T19:18:54.303Z,15.14
2022-09-18T19:21:22.131Z,15.15
2022-09-18T19:23:52.250Z,14.61
2022-09-18T19:26:24.021Z,14.72
2022-09-18T19:28:56.308Z,14.42
2022-09-18T19:31:24.130Z,14.67
2022-09-18T19:33:52.737Z,14.60
2022-09-18T19:36:26.421Z,14.62
2022-09-18T19:38:58.470Z,14.73
2022-09-18T19:41:41.116Z,14.49
2022-09-18T19:44:43.196Z,14.12
2022-09-18T19:47:26.891Z,14.43
2022-09-18T19:49:55.476Z,14.33
2022-09-18T19:52:24.624Z,14.04
2022-09-18T19:54:54.625Z,14.32
2022-09-18T19:57:23.263Z,14.15
2022-09-18T19:59:54.271Z,14.25
2022-09-18T20:02:21.908Z,14.26
2022-09-18T20:04:48.692Z,14.04
2022-09-18T20:07:15.359Z,13.58
2022-09-18T20:09:42.131Z,13.98
2022-09-18T20:12:09.736Z,14.28
2022-09-18T20:14:36.380Z,14.04
2022-09-18T20:17:03.102Z,14.27
2022-09-18T20:19:29.770Z,14.29
2022-09-18T20:21:56.412Z,14.39
2022-09-18T20:24:23.227Z,14.39
2022-09-18T20:26:51.476Z,14.57
2022-09-18T20:29:18.191Z,14.43
2022-09-18T20:31:45.956Z,14.41
2022-09-18T20:34:13.998Z,14.32
2022-09-18T20:36:40.627Z,14.25
2022-09-18T20:39:07.292Z,13.54
2022-09-18T20:41:33.959Z,13.43
2022-09-18T20:44:03.258Z,13.64
2022-09-18T20:46:31.593Z,13.49
2022-09-18T20:49:01.005Z,13.82
2022-09-18T20:51:30.150Z,14.12
2022-09-18T20:53:58.357Z,13.99
2022-09-18T20:56:27.063Z,13.85
2022-09-18T20:58:54.662Z,13.78
2022-09-18T21:01:24.160Z,13.62
2022-09-18T21:03:56.898Z,13.61
2022-09-18T21:06:26.059Z,13.28
2022-09-18T21:08:54.715Z,13.13
2022-09-18T21:11:27.443Z,13.12
2022-09-18T21:13:56.763Z,13.32
2022-09-18T21:16:26.187Z,13.40
2022-09-18T21:18:56.237Z,13.45
2022-09-18T21:21:23.292Z,13.08
2022-09-18T21:24:02.560Z,13.24
2022-09-18T21:26:38.589Z,13.27
2022-09-18T21:29:14.713Z,13.31
2022-09-18T21:31:42.700Z,12.95
2022-09-18T21:34:15.198Z,13.15
2022-09-18T21:36:45.088Z,13.23
2022-09-18T21:39:13.633Z,13.41
2022-09-18T21:41:45.964Z,13.40
2022-09-18T21:44:15.249Z,13.40
2022-09-18T21:46:44.083Z,13.05
2022-09-18T21:49:11.472Z,13.03
2022-09-18T21:51:41.664Z,13.13
2022-09-18T21:54:14.626Z,12.18
2022-09-18T21:56:41.755Z,12.59
2022-09-18T21:59:10.104Z,12.49
2022-09-18T22:01:38.168Z,12.78
2022-09-18T22:04:07.343Z,12.97
2022-09-18T22:06:42.718Z,12.82
2022-09-18T22:09:16.135Z,12.92
2022-09-18T22:11:44.564Z,13.25
2022-09-18T22:14:14.052Z,13.28
2022-09-18T22:16:43.099Z,13.21
2022-09-18T22:19:10.360Z,13.05
2022-09-18T22:21:39.364Z,13.39
2022-09-18T22:24:18.926Z,13.34
2022-09-18T22:26:50.930Z,13.37
2022-09-18T22:29:29.770Z,13.36
2022-09-18T22:31:56.978Z,13.52
2022-09-18T22:34:26.406Z,13.48
2022-09-18T22:36:53.759Z,13.27
2022-09-18T22:39:21.735Z,12.22
2022-09-18T22:41:49.658Z,12.18
2022-09-18T22:44:16.407Z,12.17
2022-09-18T22:46:45.244Z,12.04
2022-09-18T22:49:17.482Z,12.15
2022-09-18T22:51:45.650Z,11.66
2022-09-18T22:54:13.740Z,11.73
2022-09-18T22:56:44.812Z,11.68
2022-09-18T22:59:16.685Z,11.79
2022-09-18T23:01:48.996Z,11.84
2022-09-18T23:04:18.895Z,11.91
2022-09-18T23:06:47.816Z,12.25
2022-09-18T23:09:15.764Z,12.66
2022-09-18T23:11:43.809Z,12.80
2022-09-18T23:14:14.492Z,12.45
2022-09-18T23:16:41.397Z,12.58
2022-09-18T23:19:13.151Z,12.56
2022-09-18T23:21:40.159Z,12.68
2022-09-18T23:24:09.343Z,11.79
2022-09-18T23:26:41.663Z,11.91
2022-09-18T23:29:11.512Z,11.91
2022-09-18T23:31:41.430Z,11.82
2022-09-18T23:34:16.885Z,11.74
2022-09-18T23:36:45.626Z,11.35
2022-09-18T23:39:25.319Z,11.70
2022-09-18T23:41:52.533Z,11.52
2022-09-18T23:44:21.325Z,10.85
2022-09-18T23:46:48.493Z,10.71
2022-09-18T23:49:16.671Z,10.94
2022-09-18T23:51:46.389Z,11.50
2022-09-18T23:54:19.090Z,11.79
2022-09-18T23:56:46.376Z,11.57
2022-09-18T23:59:14.583Z,11.52
